createdAt,value
2022-08-12T00:04:17.560Z,46.98
2022-08-12T00:09:40.753Z,47.10
2022-08-12T00:15:03.683Z,46.57
2022-08-12T00:20:29.786Z,46.97
2022-08-12T00:26:23.101Z,47.37
2022-08-12T00:31:30.015Z,47.63
2022-08-12T00:36:52.742Z,47.17
2022-08-12T00:42:11.630Z,47.40
2022-08-12T00:47:24.736Z,47.43
2022-08-12T00:52:27.021Z,47.05
2022-08-12T00:57:36.354Z,46.80
2022-08-12T01:02:45.761Z,46.90
2022-08-12T01:08:09.913Z,46.80
2022-08-12T01:13:19.899Z,46.43
2022-08-12T01:18:29.688Z,46.90
2022-08-12T01:24:29.567Z,46.83
2022-08-12T01:29:11.439Z,46.87
2022-08-12T01:34:35.674Z,46.83
2022-08-12T01:39:35.660Z,45.73
2022-08-12T01:44:41.579Z,46.60
2022-08-12T01:50:10.342Z,46.40
2022-08-12T01:55:19.119Z,46.20
2022-08-12T02:00:35.537Z,46.73
2022-08-12T02:06:10.726Z,46.57
2022-08-12T02:11:29.750Z,46.33
2022-08-12T02:16:50.064Z,46.50
2022-08-12T02:22:19.158Z,46.20
2022-08-12T02:27:27.868Z,46.57
2022-08-12T02:32:37.080Z,46.57
2022-08-12T02:37:45.462Z,46.93
2022-08-12T02:43:03.110Z,46.20
2022-08-12T02:48:10.741Z,46.40
2022-08-12T02:53:19.252Z,46.43
2022-08-12T02:58:32.928Z,45.98
2022-08-12T03:03:35.089Z,46.03
2022-08-12T03:08:43.480Z,46.60
2022-08-12T03:14:03.037Z,45.93
2022-08-12T03:19:09.046Z,45.93
2022-08-12T03:24:17.519Z,46.10
2022-08-12T03:29:29.886Z,46.03
2022-08-12T03:34:37.715Z,46.27
2022-08-12T03:39:45.196Z,45.43
2022-08-12T03:45:21.371Z,46.07
2022-08-12T03:50:45.485Z,45.97
2022-08-12T03:56:08.590Z,46.07
2022-08-12T04:01:15.477Z,46.73
2022-08-12T04:06:34.930Z,46.73
2022-08-12T04:11:58.154Z,46.73
2022-08-12T04:17:05.861Z,47.98
2022-08-12T04:22:12.993Z,48.03
2022-08-12T04:27:19.780Z,48.17
2022-08-12T04:32:26.076Z,48.20
2022-08-12T04:37:59.908Z,47.80
2022-08-12T04:42:39.088Z,47.27
2022-08-12T04:47:44.712Z,47.13
2022-08-12T04:52:52.042Z,49.15
2022-08-12T05:03:02.608Z,48.78
2022-08-12T05:08:17.055Z,48.33
2022-08-12T05:13:25.781Z,48.20
2022-08-12T05:18:31.334Z,49.03
2022-08-12T05:23:41.094Z,49.37
2022-08-12T05:28:46.649Z,49.20
2022-08-12T05:33:51.560Z,49.23
2022-08-12T05:38:59.785Z,49.87
2022-08-12T05:44:08.051Z,49.40
2022-08-12T05:49:13.553Z,49.67
2022-08-12T05:54:21.982Z,49.33
2022-08-12T05:59:26.846Z,49.03
2022-08-12T06:04:32.434Z,49.57
2022-08-12T06:09:37.724Z,49.77
2022-08-12T06:14:44.216Z,49.50
2022-08-12T06:20:25.896Z,50.98
2022-08-12T06:24:56.702Z,50.00
2022-08-12T06:30:09.445Z,50.27
2022-08-12T06:35:26.572Z,50.47
2022-08-12T06:40:38.385Z,50.23
2022-08-12T06:45:48.305Z,50.90
2022-08-12T06:50:54.042Z,50.03
2022-08-12T06:56:00.628Z,50.05
2022-08-12T07:01:07.366Z,50.80
2022-08-12T07:06:14.035Z,52.75
2022-08-12T07:11:20.447Z,51.63
2022-08-12T07:16:27.050Z,50.80
2022-08-12T07:21:59.899Z,50.75
2022-08-12T07:26:44.257Z,50.50
2022-08-12T07:31:48.892Z,50.40
2022-08-12T07:36:55.013Z,52.58
2022-08-12T07:42:00.157Z,50.70
2022-08-12T07:47:06.987Z,51.10
2022-08-12T07:52:11.915Z,50.95
2022-08-12T07:57:16.932Z,51.50
2022-08-12T08:02:26.350Z,50.83
2022-08-12T08:07:31.312Z,50.83
2022-08-12T08:12:54.676Z,51.00
2022-08-12T08:18:05.517Z,50.87
2022-08-12T08:23:15.225Z,51.57
2022-08-12T08:28:21.346Z,51.10
2022-08-12T08:34:04.205Z,51.08
2022-08-12T08:38:35.228Z,51.02
2022-08-12T08:43:44.218Z,50.60
2022-08-12T08:48:48.608Z,50.90
2022-08-12T08:53:56.735Z,50.70
2022-08-12T08:59:02.703Z,50.10
2022-08-12T09:05:07.583Z,50.90
2022-08-12T09:09:21.554Z,50.67
2022-08-12T09:14:29.386Z,50.83
2022-08-12T09:19:33.926Z,50.60
2022-08-12T09:24:39.420Z,50.43
2022-08-12T09:30:11.804Z,51.20
2022-08-12T09:34:54.706Z,51.13
2022-08-12T09:41:02.045Z,51.40
2022-08-12T09:46:06.303Z,51.18
2022-08-12T09:50:32.300Z,51.37
2022-08-12T09:56:07.040Z,51.33
2022-08-12T10:00:52.045Z,51.87
2022-08-12T10:06:26.238Z,51.57
2022-08-12T10:11:24.867Z,52.03
2022-08-12T10:16:38.756Z,52.23
2022-08-12T10:21:41.639Z,51.60
2022-08-12T10:27:06.225Z,52.13
2022-08-12T10:32:20.933Z,51.33
2022-08-12T10:38:34.640Z,51.60
2022-08-12T10:42:47.891Z,52.30
2022-08-12T10:48:19.134Z,51.87
2022-08-12T10:53:01.209Z,51.40
2022-08-12T11:04:25.741Z,51.67
2022-08-12T11:08:35.907Z,52.60
2022-08-12T11:13:46.617Z,52.90
2022-08-12T11:18:33.581Z,52.03
2022-08-12T11:23:40.403Z,51.83
2022-08-12T11:28:45.962Z,51.85
2022-08-12T11:34:06.623Z,52.10
2022-08-12T11:39:04.544Z,52.23
2022-08-12T11:44:35.301Z,52.00
2022-08-12T11:49:30.524Z,51.97
2022-08-12T11:54:23.983Z,51.68
2022-08-12T12:04:37.532Z,51.70
2022-08-12T12:09:53.083Z,51.35
2022-08-12T12:14:54.307Z,50.93
2022-08-12T12:19:57.511Z,51.10
2022-08-12T12:25:08.987Z,51.33
2022-08-12T12:30:17.892Z,51.95
2022-08-12T12:36:16.578Z,51.30
2022-08-12T12:40:30.003Z,51.40
2022-08-12T12:45:39.471Z,51.60
2022-08-12T12:50:51.916Z,51.27
2022-08-12T12:55:57.106Z,52.20
2022-08-12T13:01:25.379Z,52.30
2022-08-12T13:06:13.848Z,51.97
2022-08-12T13:11:20.844Z,52.70
2022-08-12T13:16:29.232Z,52.30
2022-08-12T13:21:36.712Z,51.80
2022-08-12T13:26:41.493Z,51.67
2022-08-12T13:32:18.904Z,51.03
2022-08-12T13:36:57.506Z,51.63
2022-08-12T13:42:02.693Z,51.37
2022-08-12T13:47:12.424Z,51.70
2022-08-12T13:52:15.323Z,51.30
2022-08-12T13:57:20.676Z,50.80
2022-08-12T14:02:26.605Z,51.50
2022-08-12T14:07:45.897Z,51.20
2022-08-12T14:12:41.453Z,51.10
2022-08-12T14:17:52.182Z,51.27
2022-08-12T14:22:57.578Z,51.45
2022-08-12T14:28:11.729Z,51.23
2022-08-12T14:33:17.375Z,50.92
2022-08-12T14:38:28.001Z,51.43
2022-08-12T14:43:59.195Z,51.67
2022-08-12T14:48:46.897Z,52.00
2022-08-12T14:56:08.866Z,51.53
2022-08-12T14:59:23.494Z,51.47
2022-08-12T15:04:26.287Z,51.37
2022-08-12T15:09:31.485Z,51.20
2022-08-12T15:14:37.888Z,51.97
2022-08-12T15:20:11.590Z,52.40
2022-08-12T15:24:50.318Z,51.77
2022-08-12T15:29:56.485Z,51.60
2022-08-12T15:35:02.023Z,51.60
2022-08-12T15:40:09.103Z,51.48
2022-08-12T15:45:21.234Z,51.13
2022-08-12T15:50:26.566Z,51.27
2022-08-12T15:55:31.370Z,51.57
2022-08-12T16:00:41.014Z,51.37
2022-08-12T16:06:11.120Z,51.20
2022-08-12T16:10:54.620Z,51.37
2022-08-12T16:16:02.925Z,51.50
2022-08-12T16:21:51.531Z,51.20
2022-08-12T16:26:27.397Z,51.13
2022-08-12T16:31:29.635Z,50.83
2022-08-12T16:36:35.414Z,51.07
2022-08-12T16:46:58.009Z,51.55
2022-08-12T16:51:57.005Z,51.47
2022-08-12T16:57:05.582Z,51.00
2022-08-12T17:02:12.560Z,51.77
2022-08-12T17:07:21.348Z,51.02
2022-08-12T17:12:29.417Z,51.17
2022-08-12T17:17:39.327Z,51.97
2022-08-12T17:22:45.255Z,51.33
2022-08-12T17:27:57.159Z,51.47
2022-08-12T17:33:00.727Z,51.30
2022-08-12T17:38:14.164Z,51.27
2022-08-12T17:43:56.615Z,51.77
2022-08-12T17:48:34.296Z,51.53
2022-08-12T17:54:06.367Z,51.20
2022-08-12T17:58:58.469Z,51.35
2022-08-12T18:03:58.209Z,51.60
2022-08-12T18:09:08.817Z,51.70
2022-08-12T18:14:11.865Z,51.80
2022-08-12T18:19:20.027Z,51.63
2022-08-12T18:24:29.705Z,51.77
2022-08-12T18:29:42.317Z,59.30
2022-08-12T18:34:45.223Z,58.27
2022-08-12T18:40:10.551Z,54.20
2022-08-12T18:45:20.571Z,52.93
2022-08-12T18:50:27.542Z,52.53
2022-08-12T18:55:37.443Z,52.10
2022-08-12T19:00:44.711Z,52.20
2022-08-12T19:05:57.804Z,51.20
2022-08-12T19:11:23.871Z,51.87
2022-08-12T19:16:39.441Z,51.80
2022-08-12T19:21:57.038Z,52.47
2022-08-12T19:26:57.402Z,52.30
2022-08-12T19:32:06.170Z,52.10
2022-08-12T19:37:15.916Z,51.53
2022-08-12T19:42:22.926Z,52.15
2022-08-12T19:47:39.001Z,52.73
2022-08-12T19:52:41.021Z,53.55
2022-08-12T19:58:03.258Z,51.87
2022-08-12T20:02:57.524Z,51.20
2022-08-12T20:08:07.481Z,50.83
2022-08-12T20:13:18.608Z,51.93
2022-08-12T20:18:44.433Z,51.17
2022-08-12T20:23:50.405Z,53.33
2022-08-12T20:28:37.235Z,53.33
2022-08-12T20:33:50.762Z,53.23
2022-08-12T20:38:51.697Z,52.40
2022-08-12T20:43:59.592Z,52.40
2022-08-12T20:49:14.466Z,51.83
2022-08-12T20:54:14.829Z,51.23
2022-08-12T20:59:23.395Z,51.70
2022-08-12T21:04:48.138Z,52.80
2022-08-12T21:09:54.771Z,52.30
2022-08-12T21:15:23.078Z,52.23
2022-08-12T21:20:15.731Z,50.80
2022-08-12T21:25:24.254Z,51.93
2022-08-12T21:30:37.476Z,50.60
2022-08-12T21:35:40.143Z,52.70
2022-08-12T21:40:52.494Z,51.33
2022-08-12T21:46:01.345Z,51.00
2022-08-12T21:51:22.812Z,50.50
2022-08-12T21:56:33.962Z,51.03
2022-08-12T22:01:24.802Z,50.75
2022-08-12T22:06:42.874Z,51.00
2022-08-12T22:11:42.264Z,52.40
2022-08-12T22:16:46.834Z,51.80
2022-08-12T22:21:54.438Z,51.43
2022-08-12T22:27:18.109Z,50.40
2022-08-12T22:32:11.314Z,51.00
2022-08-12T22:37:19.909Z,52.00
2022-08-12T22:42:40.370Z,54.10
2022-08-12T22:47:53.935Z,52.70
2022-08-12T22:52:53.731Z,52.03
2022-08-12T22:57:58.606Z,51.43
2022-08-12T23:03:03.852Z,50.87
2022-08-12T23:08:13.900Z,51.00
2022-08-12T23:13:42.961Z,52.33
2022-08-12T23:18:44.547Z,52.60
2022-08-12T23:24:09.484Z,53.30
2022-08-12T23:34:24.044Z,51.30
2022-08-12T23:40:14.648Z,52.00
2022-08-12T23:44:38.453Z,52.20
2022-08-12T23:49:56.265Z,50.33
2022-08-12T23:54:58.258Z,51.10
